»·PEaware :: N969WR KTEX-KSGU

N969WR :: KTEX-KSGU

FLIGHT INFORMATION

Flight Status: Arrived
Operator: Privately registered:
United States
More flights under this callsign
Pilot: Ion I. (24133)
Aircraft: CANADAIR CL-600 CHALLENGER
(CL60)
More flights by this aircraft type
Origin: KTEX Telluride Regl
United States
Destination: KSGU St George Mun
United States
More flights between these airports :: More routes between these airports
Route: DVC BCE
File this flight plan on PilotEdge
Remarks:
Altitude:
(Current/Filed)
32,000ft
Speed:
(Current/Filed)
460kts
Departed: 02-Sep-23 12:53 PM
Arrived: 02-Sep-23 01:40 PM
Distance/Time
Traveled:
272nm/0:47
Distance/Time
To Go:
Arrived

Flight Plot

Page will automatically refresh every two minutes.

Flight plan parsing failed; only flown route is shown


Map Options




Map Legend


Flown Route
Filed Route
Departure Airport
Arrival Airport
Navaid (VOR, NDB)
Fix

Horizontal Profiles

Position Reports

Time Latitude Longitude Heading Altitude Ground
Speed
02-Sep-23 12:26 37.953624 -107.900604 285 9078ft 0kts
02-Sep-23 12:27 37.953624 -107.900604 285 9078ft 0kts
02-Sep-23 12:28 37.953624 -107.900604 285 9078ft 0kts
02-Sep-23 12:29 37.953624 -107.900604 285 9078ft 0kts
02-Sep-23 12:30 37.953624 -107.900604 285 9078ft 0kts
02-Sep-23 12:31 37.953624 -107.900604 285 9078ft 0kts
02-Sep-23 12:32 37.953624 -107.900604 285 9078ft 0kts
02-Sep-23 12:33 37.953624 -107.900604 285 9078ft 0kts
02-Sep-23 12:34 37.953624 -107.900604 285 9078ft 0kts
02-Sep-23 12:35 37.953624 -107.900604 285 9078ft 0kts
02-Sep-23 12:36 37.953624 -107.900604 285 9078ft 0kts
02-Sep-23 12:37 37.953624 -107.900604 285 9078ft 0kts
02-Sep-23 12:38 37.953624 -107.900604 285 9078ft 0kts
02-Sep-23 12:39 37.953624 -107.900604 285 9078ft 0kts
02-Sep-23 12:40 37.953624 -107.900604 285 9078ft 0kts
02-Sep-23 12:41 37.953624 -107.900604 285 9078ft 0kts
02-Sep-23 12:42 37.953624 -107.900604 285 9078ft 0kts
02-Sep-23 12:43 37.953624 -107.900604 285 9078ft 0kts
02-Sep-23 12:44 37.953624 -107.900604 285 9078ft 0kts
02-Sep-23 12:45 37.953624 -107.900604 285 9078ft 0kts
02-Sep-23 12:46 37.953624 -107.900604 285 9078ft 0kts
02-Sep-23 12:47 37.953624 -107.900604 285 9078ft 0kts
02-Sep-23 12:48 37.953638 -107.900668 285 9078ft 0kts
02-Sep-23 12:49 37.952764 -107.898465 104 9078ft 17kts
02-Sep-23 12:50 37.952374 -107.896829 125 9078ft 0kts
02-Sep-23 12:51 37.952314 -107.896749 145 9078ft 5kts
02-Sep-23 12:52 37.951712 -107.898768 285 9078ft 61kts
02-Sep-23 12:53 37.964280 -107.955485 285 10861ft 215kts
02-Sep-23 12:54 37.982997 -108.038301 285 13894ft 250kts
02-Sep-23 12:55 38.001080 -108.124312 284 16638ft 262kts
02-Sep-23 12:56 38.020615 -108.213409 284 19484ft 262kts
02-Sep-23 12:57 38.031397 -108.304086 240 21555ft 291kts
02-Sep-23 12:58 37.990029 -108.408821 243 23049ft 364kts
02-Sep-23 12:59 37.946643 -108.533078 244 25155ft 398kts
02-Sep-23 13:00 37.901505 -108.663685 243 27678ft 409kts
02-Sep-23 13:01 37.855066 -108.798371 244 29705ft 423kts
02-Sep-23 13:02 37.812791 -108.939396 255 31434ft 439kts
02-Sep-23 13:03 37.805364 -109.096627 265 32845ft 453kts
02-Sep-23 13:04 37.801592 -109.258783 264 33257ft 468kts
02-Sep-23 13:05 37.797489 -109.424388 265 33260ft 471kts
02-Sep-23 13:06 37.793067 -109.590164 265 33256ft 473kts
02-Sep-23 13:07 37.788443 -109.756973 264 33254ft 474kts
02-Sep-23 13:08 37.783611 -109.923554 264 33232ft 473kts
02-Sep-23 13:09 37.778546 -110.090330 264 33222ft 474kts
02-Sep-23 13:10 37.773248 -110.256604 264 33208ft 473kts
02-Sep-23 13:11 37.767704 -110.423512 264 33195ft 472kts
02-Sep-23 13:12 37.761997 -110.588488 264 33183ft 469kts
02-Sep-23 13:13 37.756028 -110.754125 264 33176ft 468kts
02-Sep-23 13:14 37.749889 -110.918476 263 33161ft 468kts
02-Sep-23 13:15 37.743471 -111.082825 263 33146ft 467kts
02-Sep-23 13:16 37.736888 -111.246230 263 33125ft 465kts
02-Sep-23 13:17 37.730114 -111.409745 263 33255ft 467kts
02-Sep-23 13:18 37.723148 -111.574186 263 33203ft 467kts
02-Sep-23 13:19 37.715824 -111.738480 262 33001ft 467kts
02-Sep-23 13:20 37.708489 -111.899677 263 31288ft 441kts
02-Sep-23 13:21 37.701417 -112.051037 263 29171ft 424kts
02-Sep-23 13:22 37.689195 -112.197645 260 27587ft 412kts
02-Sep-23 13:23 37.675877 -112.342900 260 27119ft 417kts
02-Sep-23 13:24 37.662419 -112.488004 260 26622ft 413kts
02-Sep-23 13:25 37.648845 -112.632383 260 25179ft 405kts
02-Sep-23 13:26 37.635690 -112.770575 259 23083ft 391kts
02-Sep-23 13:27 37.622721 -112.904988 259 20404ft 381kts
02-Sep-23 13:28 37.609943 -113.036328 260 17542ft 367kts
02-Sep-23 13:29 37.580232 -113.148801 214 15849ft 317kts
02-Sep-23 13:30 37.500732 -113.185351 197 13760ft 292kts
02-Sep-23 13:31 37.428170 -113.227594 210 12103ft 287kts
02-Sep-23 13:33 37.359081 -113.279446 210 10383ft 289kts
02-Sep-23 13:34 37.290181 -113.329995 209 8882ft 278kts
02-Sep-23 13:35 37.224717 -113.377723 209 7314ft 257kts
02-Sep-23 13:36 37.165652 -113.420655 209 5741ft 231kts
02-Sep-23 13:37 37.114862 -113.457991 212 4441ft 176kts
02-Sep-23 13:38 37.077715 -113.489215 202 3489ft 145kts
02-Sep-23 13:39 37.041390 -113.507635 200 2880ft 114kts
02-Sep-23 13:40 37.031357 -113.511774 113 2851ft 13kts
02-Sep-23 13:41 37.033184 -113.509782 22 2858ft 12kts
02-Sep-23 13:42 37.037135 -113.507675 23 2869ft 18kts
02-Sep-23 13:43 37.039769 -113.505523 115 2870ft 10kts
02-Sep-23 13:44 37.039221 -113.505159 203 2868ft 0kts
02-Sep-23 13:45 37.039221 -113.505159 203 2868ft 0kts
02-Sep-23 13:46 37.039221 -113.505159 203 2868ft 0kts
02-Sep-23 13:47 37.039221 -113.505159 203 2868ft 0kts
02-Sep-23 13:48 37.039221 -113.505159 203 2868ft 0kts
02-Sep-23 13:49 37.039221 -113.505159 203 2868ft 0kts
02-Sep-23 13:50 37.039221 -113.505159 203 2868ft 0kts
02-Sep-23 13:51 37.039221 -113.505159 203 2868ft 0kts
02-Sep-23 13:52 37.039221 -113.505159 203 2868ft 0kts
02-Sep-23 13:53 37.039221 -113.505159 203 2868ft 0kts
02-Sep-23 13:53 37.039221 -113.505159 203 2868ft 0kts

Navigation Log

Ident Type
Flight plan parsing failed, navigation log unavailable